CERCS-SANT JORDI





Hora UTC 06:55
Temperatura 0.4 ºC
Humitat 89.2 %
Pressió 1014.8 hPa
Pluja 0.0 mm
Velocitat vent 0.6 km/h
Direcció vent NW
Radiació solar 2.5 W/m²

Dades diàries 2022-12-01



Hora UTC (hivern +1h; estiu +2h)
Temperatura (ºC) Humitat (%) Pressió (hPa) Velocitat vent (km/h) Precipitació (mm) Radiació solar (W/m²)
Hora UTC Aire Humitat Pressió Vel. Dir. Vel. Max Dir. Intent. màx 5 min. Rad. Sol.
00:05 2.0 86.2 1015.2 2.6 NW 2.6 WNW 0.0 0.2
00:10 1.9 86.8 1015.1 0.0 NNE 0.0 NNE 0.0 0.1
00:15 1.6 87.7 1015.1 0.6 NW 6.1 NW 0.0 0.1
00:20 1.5 88.4 1015.1 3.9 WNW 8.8 NW 0.0 0.1
00:25 1.6 88.4 1015.0 1.6 SW 6.1 SSW 0.0 0.1
00:30 1.6 88.4 1015.0 1.7 NNW 8.8 NW 0.0 0.1
00:35 1.6 87.8 1015.0 2.7 NNW 8.8 NW 0.0 0.1
00:40 1.5 88.0 1014.9 1.0 NW 6.1 NW 0.0 0.1
00:45 1.4 88.3 1014.9 0.0 NNE 0.0 W 0.0 0.1
00:50 1.3 88.8 1014.8 0.0 NNE 0.0 W 0.0 0.1
00:55 1.2 89.5 1014.8 0.1 NE 3.4 NE 0.0 0.1
01:00 1.1 90.0 1014.8 0.0 NNW 3.4 NNW 0.0 0.1
01:05 1.1 90.4 1014.7 0.0 NNE 0.0 NE 0.0 0.1
01:10 0.9 90.5 1014.8 0.2 WSW 3.4 SW 0.0 0.1
01:15 1.0 91.0 1014.8 0.0 NNE 0.0 WSW 0.0 0.1
01:20 1.0 90.7 1014.8 1.2 WNW 3.4 NNW 0.0 0.1
01:25 1.1 90.8 1014.8 0.4 E 6.1 E 0.0 0.1
01:30 1.0 89.3 1014.9 0.7 ENE 6.1 ENE 0.0 0.1
01:35 0.9 88.6 1014.8 1.9 NNE 6.1 ENE 0.0 0.1
01:40 1.1 88.4 1014.8 3.9 NNE 11.5 NE 0.0 0.1
01:45 1.3 86.9 1014.9 2.1 NNE 6.1 N 0.0 0.1
01:50 1.2 87.2 1014.9 5.0 NNW 14.2 NNW 0.0 0.1
01:55 1.2 87.5 1014.9 3.5 NNW 8.8 NNW 0.0 0.1
02:00 1.3 87.7 1014.8 3.5 NNW 8.8 NNW 0.0 0.1
02:05 1.4 87.1 1014.8 0.9 WSW 6.1 SW 0.0 0.1
02:10 1.2 87.7 1014.8 1.5 NNE 6.1 NNW 0.0 0.1
02:15 1.1 88.8 1014.7 2.5 N 11.5 N 0.0 0.1
02:20 1.3 87.8 1014.7 4.3 NNW 11.5 N 0.0 0.1
02:25 1.2 87.3 1014.8 0.6 W 3.4 WSW 0.0 0.1
02:30 1.0 88.8 1014.8 0.0 ENE 3.4 ENE 0.0 0.1
02:35 0.8 89.3 1014.8 0.2 NW 3.4 NNW 0.0 0.1
02:40 0.7 90.1 1014.8 0.1 SSW 3.4 SSW 0.0 0.1
02:45 0.7 90.7 1014.7 1.7 NE 8.8 ENE 0.0 0.1
02:50 0.6 90.3 1014.7 1.3 NNE 6.1 NNE 0.0 0.1
02:55 0.8 90.7 1014.6 1.7 NNW 8.8 NNE 0.0 0.1
03:00 0.7 89.9 1014.6 0.8 NW 6.1 NW 0.0 0.1
03:05 0.7 90.4 1014.6 3.1 NW 11.5 NW 0.0 0.1
03:10 0.8 89.7 1014.6 2.2 WNW 11.5 N 0.0 0.1
03:15 0.8 89.7 1014.6 4.1 NW 8.8 NNW 0.0 0.1
03:20 0.9 88.9 1014.6 1.3 WNW 6.1 NW 0.0 0.1
03:25 0.9 89.2 1014.6 0.2 NNE 3.4 N 0.0 0.1
03:30 0.8 89.6 1014.5 3.0 N 14.2 NNE 0.0 0.1
03:35 1.0 88.5 1014.5 5.8 NW 11.5 NW 0.0 0.1
03:40 1.2 87.7 1014.5 4.3 N 11.5 NNW 0.0 0.1
03:45 1.3 86.8 1014.5 3.6 NW 14.2 NW 0.0 0.1
03:50 1.3 87.1 1014.4 3.3 NNW 11.5 NW 0.0 0.1
03:55 1.3 86.3 1014.4 5.9 NW 11.5 NNW 0.0 0.1
04:00 1.3 86.6 1014.4 4.6 NNW 16.9 NW 0.0 0.1
04:05 1.3 85.8 1014.3 4.3 NNW 11.5 N 0.0 0.1
04:10 1.3 85.5 1014.3 4.4 NW 11.5 NNW 0.0 0.2
04:15 1.1 86.6 1014.3 4.9 NW 14.2 NW 0.0 0.1
04:20 1.2 86.7 1014.3 6.7 NW 16.9 NW 0.0 0.1
04:25 1.5 85.4 1014.3 2.5 WNW 8.8 NNW 0.0 0.1
04:30 1.1 86.7 1014.4 3.6 NW 6.1 NW 0.0 0.1
04:35 1.0 88.3 1014.4 3.1 NW 8.8 NW 0.0 0.1
04:40 1.2 87.5 1014.4 3.0 WNW 8.8 WNW 0.0 0.1
04:45 1.4 85.7 1014.4 1.9 WSW 8.8 N 0.0 0.1
04:50 1.1 86.5 1014.3 1.6 SW 11.5 WNW 0.0 0.1
04:55 1.1 86.7 1014.3 1.2 NNE 8.8 WNW 0.0 0.1
05:00 0.8 87.8 1014.4 0.4 ENE 3.4 W 0.0 0.1
05:05 0.8 88.4 1014.3 1.5 WNW 6.1 WNW 0.0 0.1
05:10 0.6 88.5 1014.3 1.0 S 6.1 S 0.0 0.1
05:15 0.5 89.6 1014.3 0.3 SSE 3.4 SE 0.0 0.1
05:20 0.6 89.0 1014.3 2.9 NNE 8.8 NNE 0.0 0.1
05:25 0.6 88.2 1014.4 2.6 SW 11.5 S 0.0 0.1
05:30 0.7 88.8 1014.4 1.7 W 6.1 SSW 0.0 0.1
05:35 0.6 89.4 1014.4 1.0 NNE 6.1 NE 0.0 0.1
05:40 0.6 88.3 1014.4 1.1 NW 6.1 NW 0.0 0.1
05:45 0.6 88.4 1014.4 6.5 NW 14.2 NNW 0.0 0.1
05:50 0.7 87.4 1014.4 4.4 NW 8.8 NNW 0.0 0.1
05:55 0.8 87.4 1014.4 1.2 NNW 8.8 WNW 0.0 0.1
06:00 0.8 86.9 1014.5 4.1 NNW 14.2 NNW 0.0 0.1
06:05 0.9 86.4 1014.5 2.9 N 16.9 NNE 0.0 0.2
06:10 0.8 86.4 1014.5 5.8 NW 14.2 NW 0.0 0.1
06:15 0.8 86.8 1014.5 8.3 NW 14.2 NW 0.0 0.1
06:20 0.9 86.6 1014.6 7.0 WNW 14.2 N 0.0 0.1
06:25 1.0 86.2 1014.6 8.1 NW 22.3 WNW 0.0 0.1
06:30 1.1 85.8 1014.7 5.9 NW 19.6 NW 0.0 0.1
06:35 1.0 86.0 1014.7 3.9 W 8.8 WNW 0.0 0.2
06:40 0.8 87.5 1014.8 1.6 N 6.1 NW 0.0 0.3
06:45 0.7 88.1 1014.8 0.7 NNW 6.1 NW 0.0 0.7
06:50 0.5 87.7 1014.8 1.1 WNW 6.1 WNW 0.0 1.4
06:55 0.4 89.2 1014.8 0.6 NW 6.1 NNW 0.0 2.5
Màxima 2.0 91.0 1015.2 8.3 NW 22.3 WNW 0.0 2.5
Mínima 0.3 85.4 1014.3
Total 0.0